sensor_id;sensor_type;location;lat;lon;timestamp;temperature;humidity
14577;DHT22;7375;46.072;14.470;2023-01-16T00:01:49;21.10;64.20
14577;DHT22;7375;46.072;14.470;2023-01-16T00:04:17;21.10;64.30
14577;DHT22;7375;46.072;14.470;2023-01-16T00:06:44;21.10;64.30
14577;DHT22;7375;46.072;14.470;2023-01-16T00:09:11;21.00;64.30
14577;DHT22;7375;46.072;14.470;2023-01-16T00:11:37;21.00;64.40
14577;DHT22;7375;46.072;14.470;2023-01-16T00:14:04;21.00;64.50
14577;DHT22;7375;46.072;14.470;2023-01-16T00:16:31;20.90;64.50
14577;DHT22;7375;46.072;14.470;2023-01-16T00:18:58;20.90;64.60
14577;DHT22;7375;46.072;14.470;2023-01-16T00:21:26;20.90;64.70
14577;DHT22;7375;46.072;14.470;2023-01-16T00:23:53;20.90;64.90
14577;DHT22;7375;46.072;14.470;2023-01-16T00:26:19;20.80;64.90
14577;DHT22;7375;46.072;14.470;2023-01-16T00:28:46;20.80;65.00
14577;DHT22;7375;46.072;14.470;2023-01-16T00:31:13;20.80;65.10
14577;DHT22;7375;46.072;14.470;2023-01-16T00:33:39;20.70;65.00
14577;DHT22;7375;46.072;14.470;2023-01-16T00:36:09;20.70;65.10
14577;DHT22;7375;46.072;14.470;2023-01-16T00:38:37;20.70;65.10
14577;DHT22;7375;46.072;14.470;2023-01-16T00:41:04;20.70;65.30
14577;DHT22;7375;46.072;14.470;2023-01-16T00:43:31;20.60;65.20
14577;DHT22;7375;46.072;14.470;2023-01-16T00:45:57;20.60;65.30
14577;DHT22;7375;46.072;14.470;2023-01-16T00:48:24;20.60;65.40
14577;DHT22;7375;46.072;14.470;2023-01-16T00:50:51;20.60;65.60
14577;DHT22;7375;46.072;14.470;2023-01-16T00:53:18;20.50;65.50
14577;DHT22;7375;46.072;14.470;2023-01-16T00:55:46;20.50;65.70
14577;DHT22;7375;46.072;14.470;2023-01-16T00:58:13;20.50;65.70
14577;DHT22;7375;46.072;14.470;2023-01-16T01:00:39;20.50;65.80
14577;DHT22;7375;46.072;14.470;2023-01-16T01:03:06;20.40;65.70
14577;DHT22;7375;46.072;14.470;2023-01-16T01:05:34;20.40;65.80
14577;DHT22;7375;46.072;14.470;2023-01-16T01:08:01;20.40;65.90
14577;DHT22;7375;46.072;14.470;2023-01-16T01:10:28;20.40;66.00
14577;DHT22;7375;46.072;14.470;2023-01-16T01:12:58;20.40;66.10
14577;DHT22;7375;46.072;14.470;2023-01-16T01:15:25;20.30;66.00
14577;DHT22;7375;46.072;14.470;2023-01-16T01:17:51;20.30;66.10
14577;DHT22;7375;46.072;14.470;2023-01-16T01:20:18;20.30;66.30
14577;DHT22;7375;46.072;14.470;2023-01-16T01:22:45;20.20;66.10
14577;DHT22;7375;46.072;14.470;2023-01-16T01:25:17;20.20;66.20
14577;DHT22;7375;46.072;14.470;2023-01-16T01:27:44;20.20;66.30
14577;DHT22;7375;46.072;14.470;2023-01-16T01:30:12;20.20;66.40
14577;DHT22;7375;46.072;14.470;2023-01-16T01:32:39;20.10;66.30
14577;DHT22;7375;46.072;14.470;2023-01-16T01:35:06;20.10;66.40
14577;DHT22;7375;46.072;14.470;2023-01-16T01:37:33;20.10;66.40
14577;DHT22;7375;46.072;14.470;2023-01-16T01:40:03;20.10;66.60
14577;DHT22;7375;46.072;14.470;2023-01-16T01:42:35;20.00;66.50
14577;DHT22;7375;46.072;14.470;2023-01-16T01:45:20;20.10;66.60
14577;DHT22;7375;46.072;14.470;2023-01-16T01:47:51;20.00;66.70
14577;DHT22;7375;46.072;14.470;2023-01-16T01:50:21;20.00;67.30
14577;DHT22;7375;46.072;14.470;2023-01-16T01:52:50;19.90;66.70
14577;DHT22;7375;46.072;14.470;2023-01-16T01:55:17;19.90;66.80
14577;DHT22;7375;46.072;14.470;2023-01-16T01:57:46;19.90;66.80
14577;DHT22;7375;46.072;14.470;2023-01-16T02:00:19;19.90;66.80
14577;DHT22;7375;46.072;14.470;2023-01-16T02:02:55;19.90;66.90
14577;DHT22;7375;46.072;14.470;2023-01-16T02:05:26;19.90;66.90
14577;DHT22;7375;46.072;14.470;2023-01-16T02:07:54;19.90;67.00
14577;DHT22;7375;46.072;14.470;2023-01-16T02:10:23;19.80;67.00
14577;DHT22;7375;46.072;14.470;2023-01-16T02:12:53;19.80;67.00
14577;DHT22;7375;46.072;14.470;2023-01-16T02:15:21;19.80;67.10
14577;DHT22;7375;46.072;14.470;2023-01-16T02:17:49;19.80;67.20
14577;DHT22;7375;46.072;14.470;2023-01-16T02:20:34;19.80;67.30
14577;DHT22;7375;46.072;14.470;2023-01-16T02:31:23;19.70;67.40
14577;DHT22;7375;46.072;14.470;2023-01-16T02:34:00;19.70;67.40
14577;DHT22;7375;46.072;14.470;2023-01-16T02:36:33;19.70;67.60
14577;DHT22;7375;46.072;14.470;2023-01-16T02:41:41;19.70;67.60
14577;DHT22;7375;46.072;14.470;2023-01-16T02:44:14;19.70;67.70
14577;DHT22;7375;46.072;14.470;2023-01-16T02:46:45;19.60;67.50
14577;DHT22;7375;46.072;14.470;2023-01-16T02:49:16;19.60;67.60
14577;DHT22;7375;46.072;14.470;2023-01-16T02:51:57;19.60;67.60
14577;DHT22;7375;46.072;14.470;2023-01-16T02:54:26;19.60;67.70
14577;DHT22;7375;46.072;14.470;2023-01-16T02:56:56;19.60;67.70
14577;DHT22;7375;46.072;14.470;2023-01-16T02:59:26;19.50;67.60
14577;DHT22;7375;46.072;14.470;2023-01-16T03:01:56;19.60;67.80
14577;DHT22;7375;46.072;14.470;2023-01-16T03:04:43;19.50;67.70
14577;DHT22;7375;46.072;14.470;2023-01-16T03:07:15;19.50;67.70
14577;DHT22;7375;46.072;14.470;2023-01-16T03:09:46;19.50;67.70
14577;DHT22;7375;46.072;14.470;2023-01-16T03:12:19;19.50;67.70
14577;DHT22;7375;46.072;14.470;2023-01-16T03:14:48;19.50;67.70
14577;DHT22;7375;46.072;14.470;2023-01-16T03:17:25;19.50;67.70
14577;DHT22;7375;46.072;14.470;2023-01-16T03:19:57;19.50;67.80
14577;DHT22;7375;46.072;14.470;2023-01-16T03:22:28;19.50;67.80
14577;DHT22;7375;46.072;14.470;2023-01-16T03:25:09;19.50;67.80
14577;DHT22;7375;46.072;14.470;2023-01-16T03:27:43;19.50;67.90
14577;DHT22;7375;46.072;14.470;2023-01-16T03:30:12;19.40;67.70
14577;DHT22;7375;46.072;14.470;2023-01-16T03:32:44;19.40;67.80
14577;DHT22;7375;46.072;14.470;2023-01-16T03:35:14;19.40;67.80
14577;DHT22;7375;46.072;14.470;2023-01-16T03:37:44;19.40;67.80
14577;DHT22;7375;46.072;14.470;2023-01-16T03:40:20;19.40;67.90
14577;DHT22;7375;46.072;14.470;2023-01-16T03:42:49;19.40;67.90
14577;DHT22;7375;46.072;14.470;2023-01-16T03:45:24;19.40;67.90
14577;DHT22;7375;46.072;14.470;2023-01-16T03:47:54;19.40;67.90
14577;DHT22;7375;46.072;14.470;2023-01-16T03:50:25;19.40;68.00
14577;DHT22;7375;46.072;14.470;2023-01-16T03:52:54;19.40;68.00
14577;DHT22;7375;46.072;14.470;2023-01-16T03:55:24;19.40;68.00
14577;DHT22;7375;46.072;14.470;2023-01-16T03:57:53;19.40;68.00
14577;DHT22;7375;46.072;14.470;2023-01-16T04:00:21;19.40;68.00
14577;DHT22;7375;46.072;14.470;2023-01-16T04:02:51;19.40;68.00
14577;DHT22;7375;46.072;14.470;2023-01-16T04:05:22;19.30;67.90
14577;DHT22;7375;46.072;14.470;2023-01-16T04:07:52;19.30;67.90
14577;DHT22;7375;46.072;14.470;2023-01-16T04:10:21;19.40;68.00
14577;DHT22;7375;46.072;14.470;2023-01-16T04:12:56;19.40;68.00
14577;DHT22;7375;46.072;14.470;2023-01-16T04:15:24;19.30;67.90
14577;DHT22;7375;46.072;14.470;2023-01-16T04:17:51;19.40;67.90
14577;DHT22;7375;46.072;14.470;2023-01-16T04:20:18;19.30;67.80
14577;DHT22;7375;46.072;14.470;2023-01-16T04:22:49;19.30;67.90
14577;DHT22;7375;46.072;14.470;2023-01-16T04:25:16;19.30;67.90
14577;DHT22;7375;46.072;14.470;2023-01-16T04:27:44;19.30;67.90
14577;DHT22;7375;46.072;14.470;2023-01-16T04:30:11;19.30;67.80
14577;DHT22;7375;46.072;14.470;2023-01-16T04:32:38;19.30;67.70
14577;DHT22;7375;46.072;14.470;2023-01-16T04:35:05;19.30;67.60
14577;DHT22;7375;46.072;14.470;2023-01-16T04:37:32;19.30;67.60
14577;DHT22;7375;46.072;14.470;2023-01-16T04:40:00;19.30;67.60
14577;DHT22;7375;46.072;14.470;2023-01-16T04:42:27;19.30;67.50
14577;DHT22;7375;46.072;14.470;2023-01-16T04:44:53;19.30;67.40
14577;DHT22;7375;46.072;14.470;2023-01-16T04:47:20;19.30;67.40
14577;DHT22;7375;46.072;14.470;2023-01-16T04:49:47;19.30;67.40
14577;DHT22;7375;46.072;14.470;2023-01-16T04:52:14;19.30;67.30
14577;DHT22;7375;46.072;14.470;2023-01-16T04:54:40;19.30;67.20
14577;DHT22;7375;46.072;14.470;2023-01-16T04:57:09;19.30;67.10
14577;DHT22;7375;46.072;14.470;2023-01-16T04:59:42;19.30;67.10
14577;DHT22;7375;46.072;14.470;2023-01-16T05:02:09;19.30;67.10
14577;DHT22;7375;46.072;14.470;2023-01-16T05:04:36;19.30;67.10
14577;DHT22;7375;46.072;14.470;2023-01-16T05:07:03;19.30;67.20
14577;DHT22;7375;46.072;14.470;2023-01-16T05:09:29;19.30;67.10
14577;DHT22;7375;46.072;14.470;2023-01-16T05:12:02;19.30;67.00
14577;DHT22;7375;46.072;14.470;2023-01-16T05:14:30;19.30;66.90
14577;DHT22;7375;46.072;14.470;2023-01-16T05:16:57;19.30;66.90
14577;DHT22;7375;46.072;14.470;2023-01-16T05:19:24;19.30;66.90
14577;DHT22;7375;46.072;14.470;2023-01-16T05:21:59;19.30;66.70
14577;DHT22;7375;46.072;14.470;2023-01-16T05:24:32;19.30;66.80
14577;DHT22;7375;46.072;14.470;2023-01-16T05:26:58;19.20;66.70
14577;DHT22;7375;46.072;14.470;2023-01-16T05:29:25;19.30;66.80
14577;DHT22;7375;46.072;14.470;2023-01-16T05:31:53;19.30;66.70
14577;DHT22;7375;46.072;14.470;2023-01-16T05:34:20;19.30;66.80
14577;DHT22;7375;46.072;14.470;2023-01-16T05:36:47;19.20;66.60
14577;DHT22;7375;46.072;14.470;2023-01-16T05:39:13;19.20;66.60
14577;DHT22;7375;46.072;14.470;2023-01-16T05:41:40;19.20;66.60
14577;DHT22;7375;46.072;14.470;2023-01-16T05:44:07;19.20;66.60
14577;DHT22;7375;46.072;14.470;2023-01-16T05:46:33;19.20;66.70
14577;DHT22;7375;46.072;14.470;2023-01-16T05:49:02;19.20;66.50
14577;DHT22;7375;46.072;14.470;2023-01-16T05:51:28;19.20;66.70
14577;DHT22;7375;46.072;14.470;2023-01-16T05:53:55;19.20;66.60
14577;DHT22;7375;46.072;14.470;2023-01-16T05:56:22;19.20;66.60
14577;DHT22;7375;46.072;14.470;2023-01-16T05:58:48;19.20;66.60
14577;DHT22;7375;46.072;14.470;2023-01-16T06:01:15;19.20;66.60
14577;DHT22;7375;46.072;14.470;2023-01-16T06:03:42;19.20;66.50
14577;DHT22;7375;46.072;14.470;2023-01-16T06:06:10;19.20;66.50
14577;DHT22;7375;46.072;14.470;2023-01-16T06:08:36;19.20;66.50
14577;DHT22;7375;46.072;14.470;2023-01-16T06:11:03;19.20;66.50
14577;DHT22;7375;46.072;14.470;2023-01-16T06:13:30;19.20;66.60
14577;DHT22;7375;46.072;14.470;2023-01-16T06:15:57;19.20;66.60
14577;DHT22;7375;46.072;14.470;2023-01-16T06:18:23;19.20;66.60
14577;DHT22;7375;46.072;14.470;2023-01-16T06:20:50;19.10;66.50
14577;DHT22;7375;46.072;14.470;2023-01-16T06:23:18;19.20;66.50
14577;DHT22;7375;46.072;14.470;2023-01-16T06:25:47;19.20;66.50
14577;DHT22;7375;46.072;14.470;2023-01-16T06:28:14;19.20;66.40
14577;DHT22;7375;46.072;14.470;2023-01-16T06:30:50;19.10;66.40
14577;DHT22;7375;46.072;14.470;2023-01-16T06:33:16;19.10;66.50
14577;DHT22;7375;46.072;14.470;2023-01-16T06:35:43;19.20;66.70
14577;DHT22;7375;46.072;14.470;2023-01-16T06:38:10;19.20;66.60
14577;DHT22;7375;46.072;14.470;2023-01-16T06:40:38;19.10;66.50
14577;DHT22;7375;46.072;14.470;2023-01-16T06:43:05;19.10;67.10
14577;DHT22;7375;46.072;14.470;2023-01-16T06:45:32;19.10;66.60
14577;DHT22;7375;46.072;14.470;2023-01-16T06:47:58;19.10;66.50
14577;DHT22;7375;46.072;14.470;2023-01-16T06:50:25;19.10;66.60
14577;DHT22;7375;46.072;14.470;2023-01-16T06:52:52;19.10;66.50
14577;DHT22;7375;46.072;14.470;2023-01-16T06:55:19;19.10;66.30
14577;DHT22;7375;46.072;14.470;2023-01-16T06:57:47;19.10;66.10
14577;DHT22;7375;46.072;14.470;2023-01-16T07:00:15;19.00;66.10
14577;DHT22;7375;46.072;14.470;2023-01-16T07:02:42;19.00;66.10
14577;DHT22;7375;46.072;14.470;2023-01-16T07:05:10;19.00;66.10
14577;DHT22;7375;46.072;14.470;2023-01-16T07:07:54;19.00;66.20
14577;DHT22;7375;46.072;14.470;2023-01-16T07:10:26;19.10;66.40
14577;DHT22;7375;46.072;14.470;2023-01-16T07:13:03;19.10;66.50
14577;DHT22;7375;46.072;14.470;2023-01-16T07:15:29;19.00;66.30
14577;DHT22;7375;46.072;14.470;2023-01-16T07:18:14;19.00;66.50
14577;DHT22;7375;46.072;14.470;2023-01-16T07:20:59;19.00;66.60
14577;DHT22;7375;46.072;14.470;2023-01-16T07:23:45;19.00;66.50
14577;DHT22;7375;46.072;14.470;2023-01-16T07:26:20;19.10;66.50
14577;DHT22;7375;46.072;14.470;2023-01-16T07:28:48;19.00;66.50
14577;DHT22;7375;46.072;14.470;2023-01-16T07:31:20;19.00;66.60
14577;DHT22;7375;46.072;14.470;2023-01-16T07:33:47;19.00;66.60
14577;DHT22;7375;46.072;14.470;2023-01-16T07:36:14;19.00;66.30
14577;DHT22;7375;46.072;14.470;2023-01-16T07:38:41;19.00;66.30
14577;DHT22;7375;46.072;14.470;2023-01-16T07:41:07;18.90;66.70
14577;DHT22;7375;46.072;14.470;2023-01-16T07:43:34;19.90;64.60
14577;DHT22;7375;46.072;14.470;2023-01-16T07:46:03;23.00;56.20
14577;DHT22;7375;46.072;14.470;2023-01-16T07:48:29;25.80;48.50
14577;DHT22;7375;46.072;14.470;2023-01-16T07:50:57;27.60;43.90
14577;DHT22;7375;46.072;14.470;2023-01-16T07:53:24;28.70;41.70
14577;DHT22;7375;46.072;14.470;2023-01-16T07:55:52;29.10;40.20
14577;DHT22;7375;46.072;14.470;2023-01-16T07:58:27;29.40;39.80
14577;DHT22;7375;46.072;14.470;2023-01-16T08:00:54;29.50;39.30
14577;DHT22;7375;46.072;14.470;2023-01-16T08:03:23;29.80;38.80
14577;DHT22;7375;46.072;14.470;2023-01-16T08:05:59;29.90;38.40
14577;DHT22;7375;46.072;14.470;2023-01-16T08:08:27;29.90;38.20
14577;DHT22;7375;46.072;14.470;2023-01-16T08:10:54;30.20;37.70
14577;DHT22;7375;46.072;14.470;2023-01-16T08:13:21;30.30;37.30
14577;DHT22;7375;46.072;14.470;2023-01-16T08:15:48;30.30;37.40
14577;DHT22;7375;46.072;14.470;2023-01-16T08:18:24;30.40;37.10
14577;DHT22;7375;46.072;14.470;2023-01-16T08:20:51;30.50;37.00
14577;DHT22;7375;46.072;14.470;2023-01-16T08:23:24;30.60;36.90
14577;DHT22;7375;46.072;14.470;2023-01-16T08:25:51;30.60;36.80
14577;DHT22;7375;46.072;14.470;2023-01-16T08:28:18;30.60;36.70
14577;DHT22;7375;46.072;14.470;2023-01-16T08:30:44;30.50;36.70
14577;DHT22;7375;46.072;14.470;2023-01-16T08:33:11;30.60;36.70
14577;DHT22;7375;46.072;14.470;2023-01-16T08:35:39;30.70;36.50
14577;DHT22;7375;46.072;14.470;2023-01-16T08:38:06;30.60;36.40
14577;DHT22;7375;46.072;14.470;2023-01-16T08:40:32;30.70;36.40
14577;DHT22;7375;46.072;14.470;2023-01-16T08:42:59;30.70;36.50
14577;DHT22;7375;46.072;14.470;2023-01-16T08:45:43;30.60;36.50
14577;DHT22;7375;46.072;14.470;2023-01-16T08:48:28;30.70;36.20
14577;DHT22;7375;46.072;14.470;2023-01-16T08:51:16;30.80;36.10
14577;DHT22;7375;46.072;14.470;2023-01-16T08:53:50;30.90;36.10
14577;DHT22;7375;46.072;14.470;2023-01-16T08:56:17;30.90;36.00
14577;DHT22;7375;46.072;14.470;2023-01-16T08:58:46;30.90;36.00
14577;DHT22;7375;46.072;14.470;2023-01-16T09:01:13;30.90;35.80
14577;DHT22;7375;46.072;14.470;2023-01-16T09:03:41;30.90;35.70
14577;DHT22;7375;46.072;14.470;2023-01-16T09:06:18;31.00;35.80
14577;DHT22;7375;46.072;14.470;2023-01-16T09:08:45;31.00;35.80
14577;DHT22;7375;46.072;14.470;2023-01-16T09:11:12;31.00;35.60
14577;DHT22;7375;46.072;14.470;2023-01-16T09:13:56;31.00;35.60
14577;DHT22;7375;46.072;14.470;2023-01-16T09:16:26;31.00;35.70
14577;DHT22;7375;46.072;14.470;2023-01-16T09:18:53;31.00;35.60
14577;DHT22;7375;46.072;14.470;2023-01-16T09:21:27;31.10;35.60
14577;DHT22;7375;46.072;14.470;2023-01-16T09:23:54;31.10;35.50
14577;DHT22;7375;46.072;14.470;2023-01-16T09:26:20;31.10;35.60
14577;DHT22;7375;46.072;14.470;2023-01-16T09:28:47;31.10;35.60
14577;DHT22;7375;46.072;14.470;2023-01-16T09:31:42;31.00;35.50
14577;DHT22;7375;46.072;14.470;2023-01-16T09:34:14;31.00;35.50
14577;DHT22;7375;46.072;14.470;2023-01-16T09:36:59;30.90;35.60
14577;DHT22;7375;46.072;14.470;2023-01-16T09:39:32;31.00;35.50
14577;DHT22;7375;46.072;14.470;2023-01-16T09:48:23;31.00;35.40
14577;DHT22;7375;46.072;14.470;2023-01-16T09:51:14;31.20;35.30
14577;DHT22;7375;46.072;14.470;2023-01-16T09:54:20;31.10;35.20
14577;DHT22;7375;46.072;14.470;2023-01-16T09:57:09;31.10;35.30
14577;DHT22;7375;46.072;14.470;2023-01-16T10:02:50;31.00;35.30
14577;DHT22;7375;46.072;14.470;2023-01-16T10:08:38;31.10;35.20
14577;DHT22;7375;46.072;14.470;2023-01-16T10:11:16;31.10;35.20
14577;DHT22;7375;46.072;14.470;2023-01-16T10:16:28;31.10;35.20
14577;DHT22;7375;46.072;14.470;2023-01-16T10:19:01;31.20;35.10
14577;DHT22;7375;46.072;14.470;2023-01-16T10:21:49;31.20;34.90
14577;DHT22;7375;46.072;14.470;2023-01-16T10:24:19;31.20;34.80
14577;DHT22;7375;46.072;14.470;2023-01-16T10:26:52;31.20;34.80
14577;DHT22;7375;46.072;14.470;2023-01-16T10:29:22;31.20;34.80
14577;DHT22;7375;46.072;14.470;2023-01-16T10:31:52;31.10;34.70
14577;DHT22;7375;46.072;14.470;2023-01-16T10:34:23;31.20;34.60
14577;DHT22;7375;46.072;14.470;2023-01-16T10:36:51;31.20;34.70
14577;DHT22;7375;46.072;14.470;2023-01-16T10:39:26;31.20;34.80
14577;DHT22;7375;46.072;14.470;2023-01-16T10:41:57;31.30;34.80
14577;DHT22;7375;46.072;14.470;2023-01-16T10:44:54;31.20;34.70
14577;DHT22;7375;46.072;14.470;2023-01-16T10:47:40;31.20;34.80
14577;DHT22;7375;46.072;14.470;2023-01-16T10:50:24;31.20;34.80
14577;DHT22;7375;46.072;14.470;2023-01-16T10:52:51;31.10;34.80
14577;DHT22;7375;46.072;14.470;2023-01-16T10:55:19;31.20;34.70
14577;DHT22;7375;46.072;14.470;2023-01-16T10:57:48;31.30;34.70
14577;DHT22;7375;46.072;14.470;2023-01-16T11:00:22;31.20;34.80
14577;DHT22;7375;46.072;14.470;2023-01-16T11:02:53;31.20;34.70
14577;DHT22;7375;46.072;14.470;2023-01-16T11:05:30;31.30;34.80
14577;DHT22;7375;46.072;14.470;2023-01-16T11:08:01;31.30;34.50
14577;DHT22;7375;46.072;14.470;2023-01-16T11:10:30;31.20;34.70
14577;DHT22;7375;46.072;14.470;2023-01-16T11:12:58;31.20;34.80
14577;DHT22;7375;46.072;14.470;2023-01-16T11:18:47;31.30;34.60
14577;DHT22;7375;46.072;14.470;2023-01-16T11:21:15;31.40;34.50
14577;DHT22;7375;46.072;14.470;2023-01-16T11:23:43;31.50;34.50
14577;DHT22;7375;46.072;14.470;2023-01-16T11:26:10;24.60;27.20
14577;DHT22;7375;46.072;14.470;2023-01-16T11:28:39;19.40;33.00
14577;DHT22;7375;46.072;14.470;2023-01-16T11:31:10;20.30;37.10
14577;DHT22;7375;46.072;14.470;2023-01-16T11:33:40;24.10;35.80
14577;DHT22;7375;46.072;14.470;2023-01-16T11:36:07;25.80;35.10
14577;DHT22;7375;46.072;14.470;2023-01-16T11:38:35;26.50;34.80
14577;DHT22;7375;46.072;14.470;2023-01-16T11:41:03;27.00;34.70
14577;DHT22;7375;46.072;14.470;2023-01-16T11:43:32;27.50;34.70
14577;DHT22;7375;46.072;14.470;2023-01-16T11:46:25;27.70;35.10
14577;DHT22;7375;46.072;14.470;2023-01-16T11:48:55;27.90;35.00
14577;DHT22;7375;46.072;14.470;2023-01-16T11:51:26;28.00;35.50
14577;DHT22;7375;46.072;14.470;2023-01-16T11:53:54;27.90;35.80
14577;DHT22;7375;46.072;14.470;2023-01-16T11:56:27;27.70;35.80
14577;DHT22;7375;46.072;14.470;2023-01-16T11:58:58;27.10;34.70
14577;DHT22;7375;46.072;14.470;2023-01-16T12:01:55;26.90;35.20
14577;DHT22;7375;46.072;14.470;2023-01-16T12:04:43;26.90;32.40
14577;DHT22;7375;46.072;14.470;2023-01-16T12:07:35;27.10;32.50
14577;DHT22;7375;46.072;14.470;2023-01-16T12:10:09;27.40;32.70
14577;DHT22;7375;46.072;14.470;2023-01-16T12:12:42;27.60;33.20
14577;DHT22;7375;46.072;14.470;2023-01-16T12:15:29;27.70;33.20
14577;DHT22;7375;46.072;14.470;2023-01-16T12:18:08;28.10;33.40
14577;DHT22;7375;46.072;14.470;2023-01-16T12:20:39;28.10;33.50
14577;DHT22;7375;46.072;14.470;2023-01-16T12:25:57;28.50;33.70
14577;DHT22;7375;46.072;14.470;2023-01-16T12:28:27;28.40;33.70
14577;DHT22;7375;46.072;14.470;2023-01-16T12:34:05;28.30;34.10
14577;DHT22;7375;46.072;14.470;2023-01-16T12:36:37;28.70;34.00
14577;DHT22;7375;46.072;14.470;2023-01-16T12:39:09;28.80;34.00
14577;DHT22;7375;46.072;14.470;2023-01-16T12:41:43;28.60;34.40
14577;DHT22;7375;46.072;14.470;2023-01-16T12:44:41;28.40;34.70
14577;DHT22;7375;46.072;14.470;2023-01-16T12:47:24;28.30;35.00
14577;DHT22;7375;46.072;14.470;2023-01-16T12:50:00;28.40;35.20
14577;DHT22;7375;46.072;14.470;2023-01-16T12:52:37;28.40;35.20
14577;DHT22;7375;46.072;14.470;2023-01-16T12:55:20;28.50;35.00
14577;DHT22;7375;46.072;14.470;2023-01-16T12:57:51;28.60;35.00
14577;DHT22;7375;46.072;14.470;2023-01-16T13:00:22;28.70;34.80
14577;DHT22;7375;46.072;14.470;2023-01-16T13:03:00;28.70;35.10
14577;DHT22;7375;46.072;14.470;2023-01-16T13:05:31;28.60;35.10
14577;DHT22;7375;46.072;14.470;2023-01-16T13:08:01;28.70;35.20
14577;DHT22;7375;46.072;14.470;2023-01-16T13:10:31;28.70;35.30
14577;DHT22;7375;46.072;14.470;2023-01-16T13:13:18;28.70;35.30
14577;DHT22;7375;46.072;14.470;2023-01-16T13:16:01;28.80;35.10
14577;DHT22;7375;46.072;14.470;2023-01-16T13:18:29;28.80;35.20
14577;DHT22;7375;46.072;14.470;2023-01-16T13:21:01;28.90;35.30
14577;DHT22;7375;46.072;14.470;2023-01-16T13:23:29;28.90;35.40
14577;DHT22;7375;46.072;14.470;2023-01-16T13:26:03;29.00;35.30
14577;DHT22;7375;46.072;14.470;2023-01-16T13:28:36;28.90;35.40
14577;DHT22;7375;46.072;14.470;2023-01-16T13:31:11;29.20;35.30
14577;DHT22;7375;46.072;14.470;2023-01-16T13:33:46;29.20;35.10
14577;DHT22;7375;46.072;14.470;2023-01-16T13:39:01;29.20;35.20
14577;DHT22;7375;46.072;14.470;2023-01-16T13:41:34;29.40;34.90
14577;DHT22;7375;46.072;14.470;2023-01-16T13:44:03;29.40;35.00
14577;DHT22;7375;46.072;14.470;2023-01-16T13:46:50;29.40;35.00
14577;DHT22;7375;46.072;14.470;2023-01-16T13:49:24;29.40;35.10
14577;DHT22;7375;46.072;14.470;2023-01-16T13:51:52;29.20;35.40
14577;DHT22;7375;46.072;14.470;2023-01-16T13:54:21;29.30;35.50
14577;DHT22;7375;46.072;14.470;2023-01-16T13:56:56;29.50;35.10
14577;DHT22;7375;46.072;14.470;2023-01-16T13:59:28;29.60;34.90
14577;DHT22;7375;46.072;14.470;2023-01-16T14:01:55;29.40;35.20
14577;DHT22;7375;46.072;14.470;2023-01-16T14:04:30;29.30;35.40
14577;DHT22;7375;46.072;14.470;2023-01-16T14:10:21;29.30;35.60
14577;DHT22;7375;46.072;14.470;2023-01-16T14:12:59;29.10;35.20
14577;DHT22;7375;46.072;14.470;2023-01-16T14:15:41;29.00;35.50
14577;DHT22;7375;46.072;14.470;2023-01-16T14:18:35;29.30;35.40
14577;DHT22;7375;46.072;14.470;2023-01-16T14:21:03;29.40;35.30
14577;DHT22;7375;46.072;14.470;2023-01-16T14:23:30;29.60;35.30
14577;DHT22;7375;46.072;14.470;2023-01-16T14:26:18;29.50;35.40
14577;DHT22;7375;46.072;14.470;2023-01-16T14:28:46;29.60;35.10
14577;DHT22;7375;46.072;14.470;2023-01-16T14:31:18;29.50;35.70
14577;DHT22;7375;46.072;14.470;2023-01-16T14:33:47;29.60;35.70
14577;DHT22;7375;46.072;14.470;2023-01-16T14:36:13;29.60;35.60
14577;DHT22;7375;46.072;14.470;2023-01-16T14:38:43;29.60;35.70
14577;DHT22;7375;46.072;14.470;2023-01-16T14:41:14;29.70;35.50
14577;DHT22;7375;46.072;14.470;2023-01-16T14:44:12;29.70;35.40
14577;DHT22;7375;46.072;14.470;2023-01-16T14:50:09;29.80;35.30
14577;DHT22;7375;46.072;14.470;2023-01-16T14:52:57;29.60;35.50
14577;DHT22;7375;46.072;14.470;2023-01-16T14:55:48;29.80;35.50
14577;DHT22;7375;46.072;14.470;2023-01-16T14:58:16;29.80;35.40
14577;DHT22;7375;46.072;14.470;2023-01-16T15:00:48;29.60;35.60
14577;DHT22;7375;46.072;14.470;2023-01-16T15:03:19;29.80;35.50
14577;DHT22;7375;46.072;14.470;2023-01-16T15:05:49;29.70;35.80
14577;DHT22;7375;46.072;14.470;2023-01-16T15:08:21;29.70;35.80
14577;DHT22;7375;46.072;14.470;2023-01-16T15:11:00;29.70;35.80
14577;DHT22;7375;46.072;14.470;2023-01-16T15:14:02;29.70;35.90
14577;DHT22;7375;46.072;14.470;2023-01-16T15:16:47;29.60;36.00
14577;DHT22;7375;46.072;14.470;2023-01-16T15:19:31;29.70;35.90
14577;DHT22;7375;46.072;14.470;2023-01-16T15:22:30;29.80;35.60
14577;DHT22;7375;46.072;14.470;2023-01-16T15:25:05;29.70;35.60
14577;DHT22;7375;46.072;14.470;2023-01-16T15:27:34;29.70;35.90
14577;DHT22;7375;46.072;14.470;2023-01-16T15:30:03;29.80;35.80
14577;DHT22;7375;46.072;14.470;2023-01-16T15:32:32;29.70;36.10
14577;DHT22;7375;46.072;14.470;2023-01-16T15:35:17;29.50;36.20
14577;DHT22;7375;46.072;14.470;2023-01-16T15:37:47;29.70;36.20
14577;DHT22;7375;46.072;14.470;2023-01-16T15:40:20;29.70;36.20
14577;DHT22;7375;46.072;14.470;2023-01-16T15:42:47;29.70;36.40
14577;DHT22;7375;46.072;14.470;2023-01-16T15:45:44;29.80;36.40
14577;DHT22;7375;46.072;14.470;2023-01-16T15:48:33;29.50;36.60
14577;DHT22;7375;46.072;14.470;2023-01-16T15:51:07;29.60;36.50
14577;DHT22;7375;46.072;14.470;2023-01-16T15:53:35;29.60;36.80
14577;DHT22;7375;46.072;14.470;2023-01-16T15:56:08;29.70;36.60
14577;DHT22;7375;46.072;14.470;2023-01-16T15:58:36;29.70;36.60
14577;DHT22;7375;46.072;14.470;2023-01-16T16:01:04;29.70;36.40
14577;DHT22;7375;46.072;14.470;2023-01-16T16:03:37;29.70;36.40
14577;DHT22;7375;46.072;14.470;2023-01-16T16:06:12;29.60;36.70
14577;DHT22;7375;46.072;14.470;2023-01-16T16:08:40;29.70;36.60
14577;DHT22;7375;46.072;14.470;2023-01-16T16:11:07;29.50;36.80
14577;DHT22;7375;46.072;14.470;2023-01-16T16:13:52;29.60;36.50
14577;DHT22;7375;46.072;14.470;2023-01-16T16:16:21;29.60;36.90
14577;DHT22;7375;46.072;14.470;2023-01-16T16:19:06;29.80;36.70
14577;DHT22;7375;46.072;14.470;2023-01-16T16:21:34;29.70;36.60
14577;DHT22;7375;46.072;14.470;2023-01-16T16:24:03;29.60;36.80
14577;DHT22;7375;46.072;14.470;2023-01-16T16:26:31;29.60;36.90
14577;DHT22;7375;46.072;14.470;2023-01-16T16:29:00;29.50;36.70
14577;DHT22;7375;46.072;14.470;2023-01-16T16:31:27;29.50;37.10
14577;DHT22;7375;46.072;14.470;2023-01-16T16:33:56;29.40;37.30
14577;DHT22;7375;46.072;14.470;2023-01-16T16:36:24;29.30;37.20
14577;DHT22;7375;46.072;14.470;2023-01-16T16:38:52;29.40;37.30
14577;DHT22;7375;46.072;14.470;2023-01-16T16:44:25;29.40;37.20
14577;DHT22;7375;46.072;14.470;2023-01-16T16:46:57;29.50;37.10